Guilin Liangjiang International Airport
ZGKL : now visible

Airfield :











YOU CAN JOIN US ON...

 
LOGIN :

Register | Disclaimer

   EN    FR    IT 

 









Legend :    VFR   Marginal VFR   IFR   Intensive IFR   Very Intensive IFR
Visi :
Ceiling :
>= 8 km
>= 3000ft
5 to 8 km
1000 to 3000 ft
1500m to 5 km
500 to 1000 ft
800 to 1500m
200 to 500 ft
< 800m
< 200 ft
Symbols :   Thunderstorms  Fog  Heavy snow  Heavy precipitations  Wind > 20 kt







- Airport Elevation : 570 ft
- IATA code : KWL


ZGKL - Guilin Liangjiang International

CURRENT METAR :
  • 192200Z VRB02MPS 8000 FEW010 BKN023 OVC033 05/04 Q1019 NOSIG

EXPIRED METARs :
  • 192100Z VRB01MPS 8000 -RA FEW010 BKN023 OVC033 05/04 Q1019 NOSIG
  • 192000Z VRB01MPS 8000 -RA FEW008 BKN023 OVC033 05/04 Q1019 NOSIG

TAF TAF ZGKL
Valid from the 19 at 18:00 until the 20 at 18:00 UTC


191510Z 1918/2018 05002MPS 4000 -RA BR FEW009 SCT020 OVC033 TX09/2008Z TN05/1923Z
ZGZU FIR / Asia



MET'MAP, your aeronautical weather chart ! - Copyright ORBIFLY December 2007 - Disclaimer

ORBIFLY MET'MAP TEAM :

Programming & Development : Alexandra Zaïnal
Concept & Development : Baudouin d'Aumeries
Co-Development & Prog : Marc-Olivier Méhu
Technical & hardware support : Manuel Goepfert

Contact : metmap@orbifly.com




SOURCES & CREDITS :

   NOAA       Earth
Advisory